WRC0712 EFRO-UKBB
Flight info
| Callsign | WRC0712 |
|---|---|
| Flight time | 2h 35m |
| Altitude | 35000 |
| Route | RENVI Y86 ELSOV DCT ERTOP DCT MOHNI DCT OSKAV DCT GATVA Z494 OKNOD/K0780F350 Z494 KOMAP N743 DELON P987 BORAT L33 NANIR |
| Aircraft | A332/H-SDE3GHIJ2J3J5M1RVWXY/LB2D1 |
Departure
| Time | 2026-04-30 12:18 |
|---|---|
| Airport | Rovaniemi Airport (EFRO) |
Arrival
| Time | 2026-04-30 14:53 |
|---|---|
| Airport | Boryspil International Airport (UKBB) |
| Time | Latitude | Longitude | Altitude | Speed | Heading |
|---|---|---|---|---|---|
| 2026-04-30 11:55 | 66.55869 | 25.82720 | 631 ft | 0 kts | 155° |
| 2026-04-30 12:05 | 66.55876 | 25.82713 | 614 ft | 3 kts | 156° |
| 2026-04-30 12:05 | 66.55894 | 25.82693 | 621 ft | 3 kts | 156° |
| 2026-04-30 12:05 | 66.55911 | 25.82673 | 620 ft | 3 kts | 156° |
| 2026-04-30 12:06 | 66.55928 | 25.82653 | 615 ft | 3 kts | 167° |
| 2026-04-30 12:06 | 66.55947 | 25.82654 | 616 ft | 2 kts | 218° |
| 2026-04-30 12:07 | 66.55947 | 25.82653 | 616 ft | 0 kts | 220° |
| 2026-04-30 12:09 | 66.55938 | 25.82634 | 615 ft | 3 kts | 220° |
| 2026-04-30 12:10 | 66.55918 | 25.82582 | 622 ft | 5 kts | 228° |
| 2026-04-30 12:10 | 66.55888 | 25.82496 | 616 ft | 9 kts | 228° |
| 2026-04-30 12:10 | 66.55836 | 25.82362 | 622 ft | 11 kts | 224° |
| 2026-04-30 12:10 | 66.55767 | 25.82217 | 619 ft | 16 kts | 217° |
| 2026-04-30 12:11 | 66.55737 | 25.82161 | 614 ft | 17 kts | 217° |
| 2026-04-30 12:11 | 66.55675 | 25.82041 | 613 ft | 20 kts | 217° |
| 2026-04-30 12:11 | 66.55557 | 25.81815 | 616 ft | 21 kts | 217° |
| 2026-04-30 12:11 | 66.55448 | 25.81610 | 623 ft | 18 kts | 217° |
| 2026-04-30 12:12 | 66.55358 | 25.81431 | 620 ft | 15 kts | 227° |
| 2026-04-30 12:12 | 66.55344 | 25.81376 | 620 ft | 0 kts | 251° |
| 2026-04-30 12:13 | 66.55341 | 25.81346 | 619 ft | 4 kts | 256° |
| 2026-04-30 12:13 | 66.55343 | 25.81255 | 619 ft | 6 kts | 281° |
| 2026-04-30 12:13 | 66.55360 | 25.81176 | 621 ft | 4 kts | 309° |
| 2026-04-30 12:14 | 66.55375 | 25.81147 | 621 ft | 2 kts | 322° |
| 2026-04-30 12:14 | 66.55388 | 25.81126 | 622 ft | 3 kts | 327° |
| 2026-04-30 12:14 | 66.55417 | 25.81092 | 621 ft | 7 kts | 342° |
| 2026-04-30 12:14 | 66.55474 | 25.81115 | 620 ft | 9 kts | 29° |
| 2026-04-30 12:15 | 66.55488 | 25.81139 | 620 ft | 0 kts | 36° |
| 2026-04-30 12:17 | 66.55836 | 25.81807 | 616 ft | 89 kts | 36° |
| 2026-04-30 12:17 | 66.56467 | 25.83008 | 626 ft | 137 kts | 37° |
| 2026-04-30 12:17 | 66.57271 | 25.84583 | 1040 ft | 147 kts | 36° |
| 2026-04-30 12:18 | 66.58093 | 25.86153 | 1709 ft | 148 kts | 34° |
| 2026-04-30 12:18 | 66.58951 | 25.87765 | 2376 ft | 163 kts | 34° |
| 2026-04-30 12:18 | 66.59932 | 25.89603 | 2627 ft | 190 kts | 33° |
| 2026-04-30 12:18 | 66.60929 | 25.92044 | 3061 ft | 211 kts | 54° |
| 2026-04-30 12:19 | 66.61294 | 25.95657 | 3769 ft | 221 kts | 94° |
| 2026-04-30 12:19 | 66.60704 | 25.99253 | 4521 ft | 227 kts | 122° |
| 2026-04-30 12:19 | 66.59748 | 26.02495 | 5212 ft | 234 kts | 126° |
| 2026-04-30 12:19 | 66.58649 | 26.05576 | 5777 ft | 239 kts | 137° |
| 2026-04-30 12:20 | 66.57218 | 26.07688 | 6154 ft | 242 kts | 163° |
| 2026-04-30 12:20 | 66.55544 | 26.08117 | 6764 ft | 244 kts | 191° |
| 2026-04-30 12:20 | 66.53931 | 26.06910 | 7507 ft | 242 kts | 208° |
| 2026-04-30 12:20 | 66.52402 | 26.05132 | 8281 ft | 243 kts | 211° |
| 2026-04-30 12:21 | 66.50873 | 26.03260 | 9042 ft | 246 kts | 211° |
| 2026-04-30 12:21 | 66.49320 | 26.01375 | 9807 ft | 250 kts | 211° |
| 2026-04-30 12:21 | 66.47737 | 25.99479 | 10495 ft | 254 kts | 211° |
| 2026-04-30 12:21 | 66.46124 | 25.97565 | 11174 ft | 259 kts | 211° |
| 2026-04-30 12:22 | 66.44480 | 25.95628 | 11838 ft | 263 kts | 212° |
| 2026-04-30 12:22 | 66.42806 | 25.93664 | 12522 ft | 268 kts | 212° |
| 2026-04-30 12:22 | 66.41106 | 25.91674 | 13203 ft | 272 kts | 212° |
| 2026-04-30 12:22 | 66.39377 | 25.89657 | 13876 ft | 276 kts | 212° |
| 2026-04-30 12:23 | 66.37624 | 25.87616 | 14470 ft | 279 kts | 212° |
| 2026-04-30 12:23 | 66.35868 | 25.85578 | 15131 ft | 280 kts | 213° |
| 2026-04-30 12:23 | 66.34083 | 25.83505 | 15733 ft | 285 kts | 213° |
| 2026-04-30 12:23 | 66.32275 | 25.81408 | 16302 ft | 289 kts | 214° |
| 2026-04-30 12:24 | 66.30465 | 25.79312 | 16904 ft | 293 kts | 214° |
| 2026-04-30 12:24 | 66.28611 | 25.77169 | 17490 ft | 296 kts | 214° |
| 2026-04-30 12:24 | 66.26728 | 25.74998 | 18079 ft | 300 kts | 215° |
| 2026-04-30 12:24 | 66.24827 | 25.72809 | 18629 ft | 303 kts | 215° |
| 2026-04-30 12:25 | 66.22899 | 25.70592 | 19122 ft | 307 kts | 215° |
| 2026-04-30 12:25 | 66.20946 | 25.68349 | 19620 ft | 311 kts | 215° |
| 2026-04-30 12:25 | 66.18965 | 25.66081 | 20110 ft | 315 kts | 215° |
| 2026-04-30 12:25 | 66.16962 | 25.63790 | 20595 ft | 319 kts | 215° |
| 2026-04-30 12:26 | 66.14937 | 25.61480 | 21092 ft | 323 kts | 214° |
| 2026-04-30 12:26 | 66.12883 | 25.59138 | 21562 ft | 327 kts | 214° |
| 2026-04-30 12:26 | 66.10802 | 25.56772 | 22036 ft | 332 kts | 214° |
| 2026-04-30 12:26 | 66.08638 | 25.54608 | 22501 ft | 342 kts | 206° |
| 2026-04-30 12:27 | 66.06291 | 25.53245 | 22986 ft | 352 kts | 193° |
| 2026-04-30 12:27 | 66.03834 | 25.52659 | 23490 ft | 358 kts | 188° |
| 2026-04-30 12:27 | 66.01329 | 25.52395 | 23905 ft | 363 kts | 186° |
| 2026-04-30 12:27 | 65.98791 | 25.52291 | 24290 ft | 367 kts | 185° |
| 2026-04-30 12:28 | 65.96218 | 25.52241 | 24678 ft | 371 kts | 185° |
| 2026-04-30 12:28 | 65.93627 | 25.52184 | 25073 ft | 374 kts | 186° |
| 2026-04-30 12:28 | 65.91015 | 25.52099 | 25464 ft | 377 kts | 186° |
| 2026-04-30 12:28 | 65.88380 | 25.51981 | 25842 ft | 380 kts | 187° |
| 2026-04-30 12:29 | 65.85718 | 25.51840 | 26226 ft | 384 kts | 187° |
| 2026-04-30 12:29 | 65.83042 | 25.51683 | 26607 ft | 387 kts | 187° |
| 2026-04-30 12:29 | 65.80342 | 25.51518 | 26988 ft | 390 kts | 187° |
| 2026-04-30 12:29 | 65.77615 | 25.51350 | 27354 ft | 393 kts | 187° |
| 2026-04-30 12:30 | 65.74867 | 25.51181 | 27721 ft | 396 kts | 187° |
| 2026-04-30 12:30 | 65.72101 | 25.51014 | 28084 ft | 400 kts | 188° |
| 2026-04-30 12:30 | 65.69307 | 25.50846 | 28430 ft | 403 kts | 188° |
| 2026-04-30 12:30 | 65.66497 | 25.50679 | 28795 ft | 406 kts | 188° |
| 2026-04-30 12:31 | 65.63662 | 25.50511 | 29147 ft | 409 kts | 188° |
| 2026-04-30 12:31 | 65.60809 | 25.50342 | 29495 ft | 412 kts | 188° |
| 2026-04-30 12:31 | 65.57932 | 25.50173 | 29846 ft | 415 kts | 188° |
| 2026-04-30 12:31 | 65.55032 | 25.50003 | 30161 ft | 418 kts | 188° |
| 2026-04-30 12:32 | 65.52110 | 25.49832 | 30447 ft | 421 kts | 188° |
| 2026-04-30 12:32 | 65.49175 | 25.49661 | 30727 ft | 423 kts | 188° |
| 2026-04-30 12:32 | 65.46221 | 25.49490 | 31004 ft | 426 kts | 188° |
| 2026-04-30 12:32 | 65.43249 | 25.49318 | 31291 ft | 428 kts | 188° |
| 2026-04-30 12:33 | 65.40256 | 25.49145 | 31561 ft | 431 kts | 188° |
| 2026-04-30 12:33 | 65.37250 | 25.48972 | 31825 ft | 433 kts | 187° |
| 2026-04-30 12:33 | 65.34238 | 25.48799 | 32108 ft | 435 kts | 187° |
| 2026-04-30 12:33 | 65.31208 | 25.48625 | 32378 ft | 437 kts | 187° |
| 2026-04-30 12:34 | 65.28153 | 25.48449 | 32638 ft | 439 kts | 187° |
| 2026-04-30 12:34 | 65.25087 | 25.48271 | 32884 ft | 442 kts | 187° |
| 2026-04-30 12:34 | 65.22007 | 25.48092 | 33149 ft | 444 kts | 187° |
| 2026-04-30 12:34 | 65.18916 | 25.47912 | 33403 ft | 446 kts | 187° |
| 2026-04-30 12:35 | 65.15796 | 25.47731 | 33667 ft | 448 kts | 187° |
| 2026-04-30 12:35 | 65.12677 | 25.47551 | 33913 ft | 451 kts | 187° |
| 2026-04-30 12:35 | 65.09575 | 25.47374 | 34150 ft | 453 kts | 187° |
| 2026-04-30 12:35 | 65.06418 | 25.47196 | 34374 ft | 455 kts | 186° |
| 2026-04-30 12:36 | 65.03239 | 25.47016 | 34477 ft | 459 kts | 186° |
| 2026-04-30 12:36 | 65.00043 | 25.46838 | 34733 ft | 459 kts | 186° |
| 2026-04-30 12:36 | 64.96851 | 25.46663 | 35014 ft | 459 kts | 186° |
| 2026-04-30 12:36 | 64.93662 | 25.46484 | 35124 ft | 462 kts | 186° |
| 2026-04-30 12:37 | 64.87123 | 25.46101 | 35128 ft | 477 kts | 185° |
| 2026-04-30 12:37 | 64.80372 | 25.45708 | 35131 ft | 493 kts | 185° |
| 2026-04-30 12:38 | 64.73415 | 25.45313 | 35132 ft | 508 kts | 185° |
| 2026-04-30 12:38 | 64.66264 | 25.44914 | 35143 ft | 518 kts | 185° |
| 2026-04-30 12:39 | 64.59059 | 25.44525 | 35149 ft | 517 kts | 185° |
| 2026-04-30 12:39 | 64.51873 | 25.44135 | 35149 ft | 516 kts | 185° |
| 2026-04-30 12:40 | 64.44690 | 25.43739 | 35141 ft | 516 kts | 185° |
| 2026-04-30 12:40 | 64.37504 | 25.43344 | 35141 ft | 516 kts | 185° |
| 2026-04-30 12:41 | 64.30328 | 25.42953 | 35139 ft | 516 kts | 185° |
| 2026-04-30 12:41 | 64.23145 | 25.42564 | 35143 ft | 518 kts | 184° |
| 2026-04-30 12:42 | 64.15922 | 25.42172 | 35145 ft | 520 kts | 184° |
| 2026-04-30 12:42 | 64.08738 | 25.41788 | 35139 ft | 520 kts | 184° |
| 2026-04-30 12:43 | 64.01515 | 25.41403 | 35120 ft | 519 kts | 184° |
| 2026-04-30 12:43 | 63.94290 | 25.41020 | 35141 ft | 518 kts | 184° |
| 2026-04-30 12:44 | 63.87079 | 25.40639 | 35146 ft | 518 kts | 184° |
| 2026-04-30 12:44 | 63.79866 | 25.40264 | 35138 ft | 518 kts | 184° |
| 2026-04-30 12:45 | 63.72654 | 25.39902 | 35138 ft | 518 kts | 184° |
| 2026-04-30 12:45 | 63.65442 | 25.39526 | 35146 ft | 518 kts | 184° |
| 2026-04-30 12:46 | 63.58238 | 25.39142 | 35145 ft | 518 kts | 184° |
| 2026-04-30 12:46 | 63.51029 | 25.38766 | 35139 ft | 519 kts | 183° |
| 2026-04-30 12:47 | 63.43790 | 25.38393 | 35140 ft | 521 kts | 183° |
| 2026-04-30 12:47 | 63.36533 | 25.38023 | 35141 ft | 522 kts | 183° |
| 2026-04-30 12:48 | 63.29282 | 25.37654 | 35141 ft | 521 kts | 183° |
| 2026-04-30 12:48 | 63.22039 | 25.37284 | 35140 ft | 521 kts | 183° |
| 2026-04-30 12:49 | 63.16195 | 25.36987 | 35141 ft | 521 kts | 183° |
| 2026-04-30 12:49 | 63.08955 | 25.36620 | 35139 ft | 520 kts | 183° |
| 2026-04-30 12:50 | 63.01711 | 25.36256 | 35119 ft | 520 kts | 182° |
| 2026-04-30 12:50 | 62.94475 | 25.35893 | 35136 ft | 520 kts | 183° |
| 2026-04-30 12:51 | 62.87285 | 25.35535 | 35132 ft | 520 kts | 183° |
| 2026-04-30 12:51 | 62.80057 | 25.35210 | 35185 ft | 520 kts | 181° |
| 2026-04-30 12:52 | 62.72805 | 25.35666 | 35140 ft | 523 kts | 177° |
| 2026-04-30 12:52 | 62.65526 | 25.36517 | 35125 ft | 524 kts | 177° |
| 2026-04-30 12:53 | 62.58256 | 25.37334 | 35128 ft | 522 kts | 177° |
| 2026-04-30 12:53 | 62.50998 | 25.38068 | 35139 ft | 522 kts | 177° |
| 2026-04-30 12:54 | 62.43739 | 25.38765 | 35124 ft | 522 kts | 178° |
| 2026-04-30 12:54 | 62.36471 | 25.39455 | 35132 ft | 522 kts | 178° |
| 2026-04-30 12:55 | 62.29212 | 25.40143 | 35128 ft | 522 kts | 178° |
| 2026-04-30 12:55 | 62.21954 | 25.40831 | 35137 ft | 522 kts | 178° |
| 2026-04-30 12:56 | 62.14750 | 25.41510 | 35164 ft | 522 kts | 177° |
| 2026-04-30 12:56 | 62.07466 | 25.42193 | 35139 ft | 525 kts | 177° |
| 2026-04-30 12:57 | 62.01395 | 25.42754 | 35137 ft | 526 kts | 177° |
| 2026-04-30 12:57 | 61.94041 | 25.43352 | 35140 ft | 525 kts | 178° |
| 2026-04-30 12:58 | 61.86750 | 25.43914 | 35141 ft | 524 kts | 178° |
| 2026-04-30 12:58 | 61.79463 | 25.44478 | 35140 ft | 524 kts | 177° |
| 2026-04-30 12:59 | 61.72174 | 25.45046 | 35144 ft | 524 kts | 177° |
| 2026-04-30 12:59 | 61.64884 | 25.45613 | 35146 ft | 524 kts | 177° |
| 2026-04-30 13:00 | 61.57650 | 25.46175 | 35143 ft | 523 kts | 177° |
| 2026-04-30 13:00 | 61.50380 | 25.46736 | 35189 ft | 523 kts | 177° |
| 2026-04-30 13:01 | 61.43091 | 25.47295 | 35148 ft | 525 kts | 177° |
| 2026-04-30 13:01 | 61.35793 | 25.47854 | 35151 ft | 525 kts | 177° |
| 2026-04-30 13:02 | 61.28493 | 25.48409 | 35151 ft | 525 kts | 176° |
| 2026-04-30 13:02 | 61.21196 | 25.48961 | 35150 ft | 524 kts | 176° |
| 2026-04-30 13:03 | 61.13906 | 25.49511 | 35153 ft | 524 kts | 176° |
| 2026-04-30 13:03 | 61.06612 | 25.50058 | 35156 ft | 524 kts | 176° |
| 2026-04-30 13:04 | 61.00644 | 25.50504 | 35146 ft | 524 kts | 176° |
| 2026-04-30 13:04 | 60.93432 | 25.51040 | 35150 ft | 524 kts | 176° |
| 2026-04-30 13:05 | 60.86143 | 25.51580 | 35189 ft | 524 kts | 176° |
| 2026-04-30 13:06 | 60.75186 | 25.52388 | 35161 ft | 525 kts | 176° |
| 2026-04-30 13:06 | 60.67881 | 25.52922 | 35144 ft | 526 kts | 176° |
| 2026-04-30 13:07 | 60.60580 | 25.53454 | 35165 ft | 525 kts | 176° |
| 2026-04-30 13:07 | 60.53287 | 25.53984 | 35171 ft | 524 kts | 176° |
| 2026-04-30 13:08 | 60.45992 | 25.54511 | 35171 ft | 524 kts | 176° |
| 2026-04-30 13:08 | 60.38698 | 25.55036 | 35173 ft | 524 kts | 176° |
| 2026-04-30 13:09 | 60.31466 | 25.55553 | 35184 ft | 523 kts | 175° |
| 2026-04-30 13:09 | 60.24183 | 25.56071 | 35237 ft | 523 kts | 175° |
| 2026-04-30 13:10 | 60.16884 | 25.56590 | 35181 ft | 524 kts | 175° |
| 2026-04-30 13:10 | 60.09610 | 25.57104 | 35194 ft | 525 kts | 175° |
| 2026-04-30 13:11 | 60.02286 | 25.57619 | 35182 ft | 525 kts | 175° |
| 2026-04-30 13:11 | 59.94979 | 25.58130 | 35198 ft | 524 kts | 175° |
| 2026-04-30 13:12 | 59.87777 | 25.59342 | 35202 ft | 520 kts | 167° |
| 2026-04-30 13:12 | 59.80643 | 25.61817 | 35202 ft | 519 kts | 165° |
| 2026-04-30 13:13 | 59.69984 | 25.65891 | 35183 ft | 519 kts | 164° |
| 2026-04-30 13:14 | 59.59383 | 25.69895 | 35210 ft | 519 kts | 164° |
| 2026-04-30 13:14 | 59.48725 | 25.73853 | 35211 ft | 519 kts | 165° |
| 2026-04-30 13:15 | 59.38070 | 25.77781 | 35213 ft | 519 kts | 165° |
| 2026-04-30 13:16 | 59.30970 | 25.80386 | 35212 ft | 519 kts | 164° |
| 2026-04-30 13:16 | 59.23875 | 25.82978 | 35216 ft | 519 kts | 164° |
| 2026-04-30 13:17 | 59.13230 | 25.86848 | 35214 ft | 519 kts | 164° |
| 2026-04-30 13:18 | 59.02585 | 25.90693 | 35221 ft | 519 kts | 164° |
| 2026-04-30 13:18 | 58.91941 | 25.94514 | 35220 ft | 519 kts | 164° |
| 2026-04-30 13:19 | 58.84845 | 25.97048 | 35216 ft | 519 kts | 165° |
| 2026-04-30 13:19 | 58.77743 | 25.99573 | 35226 ft | 519 kts | 165° |
| 2026-04-30 13:20 | 58.70693 | 26.02068 | 35274 ft | 519 kts | 165° |
| 2026-04-30 13:20 | 58.63587 | 26.04491 | 35229 ft | 519 kts | 165° |
| 2026-04-30 13:21 | 58.56475 | 26.06846 | 35230 ft | 519 kts | 165° |
| 2026-04-30 13:22 | 58.45814 | 26.10363 | 35233 ft | 519 kts | 165° |
| 2026-04-30 13:22 | 58.35146 | 26.13877 | 35227 ft | 519 kts | 165° |
| 2026-04-30 13:23 | 58.24483 | 26.17369 | 35241 ft | 518 kts | 165° |
| 2026-04-30 13:24 | 58.10295 | 26.21983 | 35246 ft | 516 kts | 165° |
| 2026-04-30 13:25 | 57.96127 | 26.26553 | 35250 ft | 516 kts | 165° |
| 2026-04-30 13:26 | 57.78432 | 26.32211 | 35255 ft | 516 kts | 165° |
| 2026-04-30 13:28 | 57.60812 | 26.37783 | 35271 ft | 511 kts | 165° |
| 2026-04-30 13:28 | 57.54051 | 26.41232 | 35266 ft | 501 kts | 154° |
| 2026-04-30 13:28 | 57.50767 | 26.43380 | 35270 ft | 500 kts | 153° |
| 2026-04-30 13:29 | 57.37735 | 26.52401 | 35270 ft | 500 kts | 152° |
| 2026-04-30 13:31 | 57.21526 | 26.63470 | 35279 ft | 493 kts | 153° |
| 2026-04-30 13:32 | 57.05468 | 26.74313 | 35287 ft | 493 kts | 153° |
| 2026-04-30 13:33 | 56.92589 | 26.82930 | 35298 ft | 491 kts | 154° |
| 2026-04-30 13:34 | 56.82987 | 26.89312 | 35291 ft | 488 kts | 154° |
| 2026-04-30 13:35 | 56.70206 | 26.97762 | 35294 ft | 488 kts | 154° |
| 2026-04-30 13:36 | 56.57414 | 27.06154 | 35309 ft | 488 kts | 154° |
| 2026-04-30 13:36 | 56.47868 | 27.12375 | 35302 ft | 485 kts | 154° |
| 2026-04-30 13:37 | 56.38375 | 27.18531 | 35300 ft | 485 kts | 154° |
| 2026-04-30 13:38 | 56.28842 | 27.24681 | 35306 ft | 485 kts | 154° |
| 2026-04-30 13:39 | 56.16142 | 27.32819 | 35304 ft | 483 kts | 155° |
| 2026-04-30 13:40 | 56.06660 | 27.38860 | 35299 ft | 482 kts | 155° |
| 2026-04-30 13:40 | 56.00339 | 27.42871 | 35306 ft | 482 kts | 155° |
| 2026-04-30 13:41 | 55.94011 | 27.46872 | 35299 ft | 482 kts | 155° |
| 2026-04-30 13:41 | 55.87689 | 27.50854 | 35305 ft | 482 kts | 155° |
| 2026-04-30 13:42 | 55.81373 | 27.54817 | 35305 ft | 480 kts | 156° |
| 2026-04-30 13:42 | 55.71935 | 27.60716 | 35299 ft | 479 kts | 156° |
| 2026-04-30 13:43 | 55.65678 | 27.64611 | 35297 ft | 479 kts | 156° |
| 2026-04-30 13:43 | 55.59382 | 27.68516 | 35295 ft | 479 kts | 156° |
| 2026-04-30 13:44 | 55.53093 | 27.72404 | 35295 ft | 479 kts | 156° |
| 2026-04-30 13:44 | 55.46803 | 27.76279 | 35296 ft | 478 kts | 156° |
| 2026-04-30 13:45 | 55.39676 | 27.80652 | 35290 ft | 477 kts | 156° |
| 2026-04-30 13:46 | 55.33410 | 27.84484 | 35289 ft | 477 kts | 156° |
| 2026-04-30 13:46 | 55.27140 | 27.88308 | 35287 ft | 477 kts | 156° |
| 2026-04-30 13:47 | 55.20866 | 27.92120 | 35280 ft | 477 kts | 156° |
| 2026-04-30 13:47 | 55.14603 | 27.95911 | 35282 ft | 476 kts | 156° |
| 2026-04-30 13:48 | 55.08336 | 27.99693 | 35286 ft | 477 kts | 156° |
| 2026-04-30 13:48 | 55.02061 | 28.03468 | 35284 ft | 476 kts | 156° |
| 2026-04-30 13:49 | 54.95796 | 28.07224 | 35289 ft | 476 kts | 156° |
| 2026-04-30 13:49 | 54.89525 | 28.10970 | 35280 ft | 477 kts | 156° |
| 2026-04-30 13:50 | 54.83255 | 28.14704 | 35282 ft | 476 kts | 156° |
| 2026-04-30 13:50 | 54.73859 | 28.20277 | 35285 ft | 475 kts | 157° |
| 2026-04-30 13:51 | 54.67609 | 28.23968 | 35285 ft | 475 kts | 157° |
| 2026-04-30 13:51 | 54.61357 | 28.27649 | 35282 ft | 475 kts | 157° |
| 2026-04-30 13:52 | 54.55099 | 28.31323 | 35279 ft | 475 kts | 157° |
| 2026-04-30 13:52 | 54.48847 | 28.34980 | 35284 ft | 474 kts | 157° |
| 2026-04-30 13:53 | 54.42647 | 28.38595 | 35311 ft | 474 kts | 157° |
| 2026-04-30 13:53 | 54.36398 | 28.42228 | 35284 ft | 473 kts | 157° |
| 2026-04-30 13:54 | 54.30162 | 28.45840 | 35279 ft | 473 kts | 157° |
| 2026-04-30 13:54 | 54.23925 | 28.49441 | 35281 ft | 473 kts | 157° |
| 2026-04-30 13:55 | 54.17682 | 28.53035 | 35278 ft | 473 kts | 157° |
| 2026-04-30 13:55 | 54.11446 | 28.56613 | 35281 ft | 472 kts | 157° |
| 2026-04-30 13:56 | 54.05216 | 28.60177 | 35281 ft | 472 kts | 158° |
| 2026-04-30 13:56 | 53.98983 | 28.63731 | 35280 ft | 473 kts | 158° |
| 2026-04-30 13:57 | 53.92747 | 28.67275 | 35287 ft | 473 kts | 158° |
| 2026-04-30 13:57 | 53.86419 | 28.70368 | 35283 ft | 477 kts | 168° |
| 2026-04-30 13:58 | 53.76422 | 28.70307 | 35286 ft | 482 kts | 182° |
| 2026-04-30 13:59 | 53.69739 | 28.69377 | 35294 ft | 482 kts | 183° |
| 2026-04-30 13:59 | 53.63095 | 28.68427 | 35306 ft | 482 kts | 183° |
| 2026-04-30 14:00 | 53.56413 | 28.67533 | 35278 ft | 481 kts | 182° |
| 2026-04-30 14:00 | 53.46398 | 28.66252 | 35295 ft | 481 kts | 182° |
| 2026-04-30 14:01 | 53.39716 | 28.65405 | 35286 ft | 481 kts | 182° |
| 2026-04-30 14:01 | 53.33098 | 28.66032 | 35285 ft | 474 kts | 163° |
| 2026-04-30 14:02 | 53.26749 | 28.68892 | 35289 ft | 471 kts | 159° |
| 2026-04-30 14:02 | 53.20495 | 28.72164 | 35286 ft | 471 kts | 158° |
| 2026-04-30 14:03 | 53.14247 | 28.75471 | 35299 ft | 471 kts | 159° |
| 2026-04-30 14:03 | 53.07998 | 28.78728 | 35290 ft | 471 kts | 159° |
| 2026-04-30 14:04 | 53.01740 | 28.81950 | 35295 ft | 471 kts | 159° |
| 2026-04-30 14:04 | 52.95522 | 28.85134 | 35294 ft | 471 kts | 159° |
| 2026-04-30 14:05 | 52.89259 | 28.88332 | 35297 ft | 471 kts | 159° |
| 2026-04-30 14:05 | 52.82999 | 28.91520 | 35298 ft | 471 kts | 159° |
| 2026-04-30 14:06 | 52.73621 | 28.96277 | 35304 ft | 469 kts | 159° |
| 2026-04-30 14:07 | 52.64252 | 29.01009 | 35301 ft | 469 kts | 160° |
| 2026-04-30 14:08 | 52.54888 | 29.05717 | 35304 ft | 469 kts | 160° |
| 2026-04-30 14:08 | 52.51772 | 29.07279 | 35157 ft | 469 kts | 160° |
| 2026-04-30 14:08 | 52.45568 | 29.10379 | 34569 ft | 458 kts | 160° |
| 2026-04-30 14:09 | 52.42548 | 29.11880 | 34417 ft | 448 kts | 159° |
| 2026-04-30 14:09 | 52.39599 | 29.13345 | 34289 ft | 439 kts | 159° |
| 2026-04-30 14:09 | 52.33877 | 29.16185 | 33976 ft | 420 kts | 159° |
| 2026-04-30 14:10 | 52.31108 | 29.17557 | 33822 ft | 412 kts | 159° |
| 2026-04-30 14:10 | 52.28397 | 29.18900 | 33673 ft | 403 kts | 158° |
| 2026-04-30 14:10 | 52.25736 | 29.20217 | 33525 ft | 395 kts | 158° |
| 2026-04-30 14:10 | 52.23129 | 29.21507 | 33276 ft | 390 kts | 158° |
| 2026-04-30 14:11 | 52.20539 | 29.22789 | 32980 ft | 387 kts | 158° |
| 2026-04-30 14:11 | 52.18004 | 29.24044 | 32638 ft | 385 kts | 157° |
| 2026-04-30 14:11 | 52.15445 | 29.25309 | 32287 ft | 384 kts | 157° |
| 2026-04-30 14:11 | 52.12894 | 29.26567 | 31945 ft | 381 kts | 156° |
| 2026-04-30 14:12 | 52.10374 | 29.27805 | 31441 ft | 378 kts | 156° |
| 2026-04-30 14:12 | 52.07855 | 29.29041 | 30887 ft | 377 kts | 155° |
| 2026-04-30 14:12 | 52.05351 | 29.30269 | 30341 ft | 376 kts | 155° |
| 2026-04-30 14:12 | 52.03663 | 29.31096 | 29954 ft | 373 kts | 155° |
| 2026-04-30 14:13 | 52.00397 | 29.32691 | 29331 ft | 367 kts | 155° |
| 2026-04-30 14:13 | 51.97972 | 29.33873 | 28853 ft | 362 kts | 155° |
| 2026-04-30 14:13 | 51.95569 | 29.35043 | 28382 ft | 358 kts | 155° |
| 2026-04-30 14:13 | 51.93197 | 29.36200 | 27928 ft | 354 kts | 155° |
| 2026-04-30 14:14 | 51.90848 | 29.37345 | 27444 ft | 351 kts | 155° |
| 2026-04-30 14:14 | 51.88519 | 29.38480 | 27053 ft | 348 kts | 155° |
| 2026-04-30 14:14 | 51.86200 | 29.39610 | 26775 ft | 346 kts | 155° |
| 2026-04-30 14:14 | 51.83905 | 29.40725 | 26531 ft | 343 kts | 155° |
| 2026-04-30 14:15 | 51.81626 | 29.41831 | 26267 ft | 341 kts | 155° |
| 2026-04-30 14:15 | 51.79363 | 29.42929 | 26047 ft | 339 kts | 156° |
| 2026-04-30 14:15 | 51.77118 | 29.44013 | 25827 ft | 334 kts | 156° |
| 2026-04-30 14:15 | 51.74903 | 29.45082 | 25578 ft | 332 kts | 156° |
| 2026-04-30 14:16 | 51.72698 | 29.46149 | 25319 ft | 330 kts | 156° |
| 2026-04-30 14:16 | 51.70505 | 29.47208 | 25060 ft | 328 kts | 156° |
| 2026-04-30 14:16 | 51.68329 | 29.48259 | 24797 ft | 326 kts | 156° |
| 2026-04-30 14:16 | 51.66159 | 29.49305 | 24540 ft | 324 kts | 156° |
| 2026-04-30 14:17 | 51.64005 | 29.50342 | 24316 ft | 322 kts | 156° |
| 2026-04-30 14:17 | 51.61860 | 29.51373 | 24064 ft | 321 kts | 156° |
| 2026-04-30 14:17 | 51.59730 | 29.52396 | 23804 ft | 319 kts | 156° |
| 2026-04-30 14:17 | 51.57608 | 29.53414 | 23511 ft | 317 kts | 157° |
| 2026-04-30 14:18 | 51.55502 | 29.54423 | 23237 ft | 315 kts | 157° |
| 2026-04-30 14:18 | 51.53411 | 29.55423 | 22953 ft | 313 kts | 157° |
| 2026-04-30 14:18 | 51.49270 | 29.57403 | 22412 ft | 308 kts | 157° |
| 2026-04-30 14:19 | 51.45437 | 29.60119 | 21869 ft | 296 kts | 141° |
| 2026-04-30 14:19 | 51.43708 | 29.61878 | 21608 ft | 293 kts | 139° |
| 2026-04-30 14:19 | 51.42020 | 29.63674 | 21350 ft | 291 kts | 139° |
| 2026-04-30 14:20 | 51.40348 | 29.65473 | 21083 ft | 288 kts | 139° |
| 2026-04-30 14:20 | 51.38688 | 29.67262 | 20830 ft | 287 kts | 139° |
| 2026-04-30 14:20 | 51.35398 | 29.70810 | 20309 ft | 284 kts | 140° |
| 2026-04-30 14:21 | 51.33766 | 29.72568 | 20056 ft | 282 kts | 140° |
| 2026-04-30 14:21 | 51.32141 | 29.74318 | 19826 ft | 281 kts | 140° |
| 2026-04-30 14:21 | 51.28936 | 29.77763 | 19511 ft | 279 kts | 140° |
| 2026-04-30 14:22 | 51.27305 | 29.79516 | 19507 ft | 279 kts | 140° |
| 2026-04-30 14:22 | 51.24102 | 29.82952 | 19509 ft | 279 kts | 140° |
| 2026-04-30 14:22 | 51.22490 | 29.84678 | 19514 ft | 279 kts | 140° |
| 2026-04-30 14:23 | 51.19273 | 29.88118 | 19510 ft | 278 kts | 141° |
| 2026-04-30 14:23 | 51.16059 | 29.91550 | 19509 ft | 278 kts | 141° |
| 2026-04-30 14:24 | 51.12848 | 29.94973 | 19509 ft | 278 kts | 141° |
| 2026-04-30 14:24 | 51.11243 | 29.96681 | 19506 ft | 278 kts | 141° |
| 2026-04-30 14:25 | 51.08032 | 30.00096 | 19508 ft | 278 kts | 141° |
| 2026-04-30 14:25 | 51.04819 | 30.03506 | 19506 ft | 278 kts | 141° |
| 2026-04-30 14:26 | 51.01582 | 30.06937 | 19071 ft | 280 kts | 141° |
| 2026-04-30 14:26 | 50.99975 | 30.08634 | 18877 ft | 276 kts | 141° |
| 2026-04-30 14:26 | 50.96800 | 30.11989 | 18406 ft | 273 kts | 142° |
| 2026-04-30 14:27 | 50.95223 | 30.13652 | 18150 ft | 271 kts | 143° |
| 2026-04-30 14:27 | 50.93658 | 30.15303 | 17875 ft | 269 kts | 143° |
| 2026-04-30 14:27 | 50.92101 | 30.16944 | 17609 ft | 268 kts | 143° |
| 2026-04-30 14:28 | 50.89009 | 30.20199 | 17078 ft | 265 kts | 143° |
| 2026-04-30 14:28 | 50.87475 | 30.21812 | 16793 ft | 263 kts | 143° |
| 2026-04-30 14:28 | 50.85958 | 30.23405 | 16398 ft | 261 kts | 143° |
| 2026-04-30 14:28 | 50.84452 | 30.24989 | 15946 ft | 259 kts | 143° |
| 2026-04-30 14:29 | 50.81649 | 30.28484 | 15070 ft | 254 kts | 136° |
| 2026-04-30 14:29 | 50.79459 | 30.31536 | 14372 ft | 251 kts | 136° |
| 2026-04-30 14:30 | 50.75139 | 30.37552 | 12868 ft | 245 kts | 137° |
| 2026-04-30 14:31 | 50.72595 | 30.41080 | 11981 ft | 242 kts | 137° |
| 2026-04-30 14:31 | 50.70094 | 30.44541 | 11117 ft | 239 kts | 137° |
| 2026-04-30 14:31 | 50.68849 | 30.46264 | 10690 ft | 238 kts | 137° |
| 2026-04-30 14:32 | 50.66378 | 30.49676 | 9858 ft | 234 kts | 137° |
| 2026-04-30 14:32 | 50.65154 | 30.51365 | 9388 ft | 233 kts | 137° |
| 2026-04-30 14:32 | 50.63938 | 30.53041 | 8962 ft | 231 kts | 137° |
| 2026-04-30 14:33 | 50.63124 | 30.54162 | 8700 ft | 230 kts | 137° |
| 2026-04-30 14:33 | 50.60730 | 30.57460 | 7810 ft | 230 kts | 138° |
| 2026-04-30 14:33 | 50.59531 | 30.59117 | 7386 ft | 230 kts | 137° |
| 2026-04-30 14:34 | 50.58332 | 30.60779 | 6965 ft | 229 kts | 138° |
| 2026-04-30 14:34 | 50.57149 | 30.62431 | 6590 ft | 226 kts | 135° |
| 2026-04-30 14:34 | 50.56154 | 30.64309 | 6181 ft | 223 kts | 118° |
| 2026-04-30 14:34 | 50.55635 | 30.66569 | 5776 ft | 218 kts | 96° |
| 2026-04-30 14:35 | 50.55433 | 30.71276 | 5068 ft | 214 kts | 86° |
| 2026-04-30 14:35 | 50.55601 | 30.73574 | 4992 ft | 210 kts | 70° |
| 2026-04-30 14:35 | 50.56233 | 30.75601 | 4994 ft | 205 kts | 49° |
| 2026-04-30 14:36 | 50.57278 | 30.77072 | 4994 ft | 200 kts | 27° |
| 2026-04-30 14:36 | 50.58570 | 30.77812 | 4997 ft | 198 kts | 7° |
| 2026-04-30 14:36 | 50.59935 | 30.78019 | 4986 ft | 197 kts | 1° |
| 2026-04-30 14:36 | 50.61269 | 30.78104 | 5011 ft | 185 kts | 1° |
| 2026-04-30 14:37 | 50.62508 | 30.78173 | 5007 ft | 172 kts | 0° |
| 2026-04-30 14:37 | 50.63668 | 30.78244 | 4998 ft | 164 kts | 0° |
| 2026-04-30 14:37 | 50.64798 | 30.78317 | 5001 ft | 162 kts | 0° |
| 2026-04-30 14:37 | 50.65925 | 30.78395 | 4987 ft | 162 kts | 0° |
| 2026-04-30 14:38 | 50.67052 | 30.78475 | 4996 ft | 162 kts | 1° |
| 2026-04-30 14:38 | 50.68175 | 30.78557 | 4996 ft | 162 kts | 1° |
| 2026-04-30 14:38 | 50.69300 | 30.78641 | 4999 ft | 162 kts | 1° |
| 2026-04-30 14:38 | 50.70430 | 30.78724 | 4991 ft | 162 kts | 1° |
| 2026-04-30 14:39 | 50.71559 | 30.78811 | 4996 ft | 162 kts | 1° |
| 2026-04-30 14:39 | 50.72684 | 30.78896 | 4993 ft | 162 kts | 1° |
| 2026-04-30 14:39 | 50.73809 | 30.78980 | 4995 ft | 161 kts | 1° |
| 2026-04-30 14:40 | 50.76054 | 30.79150 | 5003 ft | 162 kts | 1° |
| 2026-04-30 14:40 | 50.77174 | 30.79233 | 4995 ft | 162 kts | 1° |
| 2026-04-30 14:40 | 50.77870 | 30.79286 | 4992 ft | 162 kts | 1° |
| 2026-04-30 14:40 | 50.78991 | 30.79489 | 4998 ft | 163 kts | 10° |
| 2026-04-30 14:41 | 50.80045 | 30.80140 | 4997 ft | 165 kts | 27° |
| 2026-04-30 14:41 | 50.80924 | 30.81324 | 4993 ft | 168 kts | 46° |
| 2026-04-30 14:41 | 50.81507 | 30.82946 | 4989 ft | 173 kts | 67° |
| 2026-04-30 14:41 | 50.81709 | 30.84829 | 4995 ft | 176 kts | 85° |
| 2026-04-30 14:42 | 50.81679 | 30.86774 | 4997 ft | 177 kts | 89° |
| 2026-04-30 14:42 | 50.81518 | 30.88710 | 4984 ft | 180 kts | 101° |
| 2026-04-30 14:42 | 50.81007 | 30.90495 | 4985 ft | 182 kts | 123° |
| 2026-04-30 14:42 | 50.80087 | 30.91889 | 4792 ft | 187 kts | 148° |
| 2026-04-30 14:43 | 50.78868 | 30.92571 | 4553 ft | 186 kts | 174° |
| 2026-04-30 14:43 | 50.77588 | 30.92619 | 4360 ft | 183 kts | 184° |
| 2026-04-30 14:43 | 50.76321 | 30.92505 | 4142 ft | 182 kts | 186° |
| 2026-04-30 14:43 | 50.75056 | 30.92377 | 3914 ft | 182 kts | 185° |
| 2026-04-30 14:44 | 50.73791 | 30.92259 | 3689 ft | 182 kts | 185° |
| 2026-04-30 14:44 | 50.72523 | 30.92151 | 3465 ft | 182 kts | 185° |
| 2026-04-30 14:44 | 50.71268 | 30.92049 | 3251 ft | 181 kts | 185° |
| 2026-04-30 14:44 | 50.70012 | 30.91951 | 3043 ft | 179 kts | 185° |
| 2026-04-30 14:45 | 50.68767 | 30.91853 | 2995 ft | 180 kts | 185° |
| 2026-04-30 14:45 | 50.67516 | 30.91757 | 2998 ft | 179 kts | 184° |
| 2026-04-30 14:45 | 50.66272 | 30.91665 | 2991 ft | 178 kts | 185° |
| 2026-04-30 14:45 | 50.65035 | 30.91572 | 2989 ft | 178 kts | 185° |
| 2026-04-30 14:46 | 50.63793 | 30.91478 | 2983 ft | 178 kts | 184° |
| 2026-04-30 14:46 | 50.62555 | 30.91385 | 2993 ft | 178 kts | 184° |
| 2026-04-30 14:46 | 50.61318 | 30.91353 | 2990 ft | 178 kts | 179° |
| 2026-04-30 14:46 | 50.60083 | 30.91452 | 2986 ft | 178 kts | 177° |
| 2026-04-30 14:47 | 50.58845 | 30.91586 | 2985 ft | 178 kts | 176° |
| 2026-04-30 14:47 | 50.57627 | 30.91944 | 2983 ft | 179 kts | 171° |
| 2026-04-30 14:47 | 50.56387 | 30.92090 | 2992 ft | 179 kts | 182° |
| 2026-04-30 14:47 | 50.55144 | 30.92017 | 2984 ft | 179 kts | 185° |
| 2026-04-30 14:48 | 50.53902 | 30.91918 | 2983 ft | 179 kts | 185° |
| 2026-04-30 14:48 | 50.52678 | 30.91829 | 2994 ft | 170 kts | 184° |
| 2026-04-30 14:48 | 50.51537 | 30.91766 | 2997 ft | 164 kts | 184° |
| 2026-04-30 14:48 | 50.50393 | 30.91705 | 2998 ft | 162 kts | 183° |
| 2026-04-30 14:49 | 50.49268 | 30.91637 | 2992 ft | 162 kts | 184° |
| 2026-04-30 14:49 | 50.48168 | 30.91559 | 2913 ft | 153 kts | 185° |
| 2026-04-30 14:49 | 50.47141 | 30.91475 | 2720 ft | 143 kts | 185° |
| 2026-04-30 14:49 | 50.46168 | 30.91400 | 2511 ft | 138 kts | 185° |
| 2026-04-30 14:50 | 50.44248 | 30.91256 | 2128 ft | 139 kts | 185° |
| 2026-04-30 14:50 | 50.43282 | 30.91186 | 1922 ft | 139 kts | 185° |
| 2026-04-30 14:51 | 50.41351 | 30.91040 | 1524 ft | 139 kts | 184° |
| 2026-04-30 14:51 | 50.40390 | 30.90970 | 1339 ft | 138 kts | 184° |
| 2026-04-30 14:51 | 50.38460 | 30.90827 | 944 ft | 138 kts | 184° |
| 2026-04-30 14:52 | 50.37510 | 30.90757 | 746 ft | 135 kts | 186° |
| 2026-04-30 14:52 | 50.35654 | 30.90620 | 422 ft | 128 kts | 184° |
| 2026-04-30 14:52 | 50.34915 | 30.90560 | 417 ft | 81 kts | 182° |
| 2026-04-30 14:53 | 50.34291 | 30.90502 | 420 ft | 30 kts | 194° |
| 2026-04-30 14:53 | 50.34109 | 30.90364 | 411 ft | 22 kts | 212° |
| 2026-04-30 14:54 | 50.34086 | 30.90341 | 412 ft | 0 kts | 212° |
| 2026-04-30 14:55 | 50.34071 | 30.90326 | 411 ft | 5 kts | 212° |
| 2026-04-30 14:55 | 50.33994 | 30.90180 | 410 ft | 11 kts | 213° |
| 2026-04-30 14:56 | 50.33810 | 30.90160 | 414 ft | 16 kts | 182° |
| 2026-04-30 14:56 | 50.33597 | 30.90061 | 410 ft | 12 kts | 258° |
| 2026-04-30 14:57 | 50.33604 | 30.89962 | 412 ft | 9 kts | 278° |
| 2026-04-30 14:57 | 50.33612 | 30.89769 | 411 ft | 9 kts | 272° |
| 2026-04-30 14:58 | 50.33598 | 30.89559 | 409 ft | 9 kts | 257° |
| 2026-04-30 14:58 | 50.33603 | 30.89479 | 411 ft | 5 kts | 302° |
| 2026-04-30 14:58 | 50.33631 | 30.89471 | 414 ft | 4 kts | 355° |
| 2026-04-30 14:59 | 50.33714 | 30.89476 | 408 ft | 9 kts | 2° |
| 2026-04-30 15:00 | 50.33920 | 30.89492 | 421 ft | 0 kts | 3° |
| 2026-04-30 15:00 | 50.33940 | 30.89493 | 415 ft | 4 kts | 1° |
| 2026-04-30 15:01 | 50.33997 | 30.89496 | 411 ft | 0 kts | 2° |